Andrews Air Force Base
KADW : rendu visible

Aérodrome :











RETROUVEZ-NOUS SUR...

 
LOGIN :

S'inscrire | Disclaimer

   EN    FR    IT 

 









Légende :    VFR   VFR Marginal   IFR   IFR Intensif   IFR Très Intensif
Visi : 
Plafond : 
>= 8 km
>= 3000ft
5 à 8 km
1000 à 3000 ft
1500m à 5 km
500 à 1000 ft
800 à 1500m
200 à 500 ft
< 800m
< 200 ft
Symboles :   Orages  Brouillard  Fortes neiges  Fortes précipitations  Vent > 20 kt






- Altitude de l'aérodrome : 280 ft


KADW - Andrews Air Force Base

DERNIER METAR :
  • 081156Z 24008KT 10SM OVC100 14/12 A2959 RMK AO2A RAE00DZB00E02DZB04E12 SLP026 P0000 60005 70030 T01380117 10146 20128 55006 $

METARs EXPIRÉS :
  • 081112Z AUTO 24009KT 10SM SCT060 SCT085 13/12 A2960 RMK AO2 RAE00DZB00E02DZB04E12 SLP030 $
  • 081056Z AUTO 24007KT 10SM -RA SCT055 BKN085 13/12 A2960 RMK AO2 SLP030 P0003 T01340123 $
  • 080956Z AUTO 24005KT 10SM -RA BKN090 14/11 A2959 RMK AO2 DZB04E09RAB09E24DZB43E49RAB49 SLP026 P0001 T01440114 $
  • 080943Z AUTO 29005KT 10SM -DZ FEW050 BKN095 BKN120 15/11 A2960 RMK AO2 DZB04E09RAB09E24DZB43 SLP029 $
  • 080924Z AUTO 32008G16KT 10SM FEW055 BKN120 14/11 A2959 RMK AO2 DZB04E09RAB09E24 SLP026 $

TAF AMD TAF KADW
Valide du 08 à 12h jusqu'au 09 à 15h UTC


081204Z 0812/0915 30008KT 9999 BKN100 BKN250 QNH2956INS
BECMG 0815/0816 28010G20KT 9999 BKN030 BKN250 QNH2955INS
BECMG 0818/0819 29015G25KT 9999 VCTS FEW030CB BKN040 BKN100 BKN250 QNH2955INS
BECMG 0822/0823 36008KT 9999 NSW SKC QNH2960INS
BECMG 0904/0905 09004KT 9999 FEW005 SCT250 QNH2948INS
BECMG 0909/0910 16008KT 9999 BKN005 OVC200 QNH2940INS
BECMG 0912/0913 20012KT 9999 VCSH FEW008 BKN050 OVC150 WS020/22035KT QNH2932INS TX26/0819Z TN12/0908Z



MET'MAP, la Météo Aéronautique d'un coup d'oeil ! - Copyright ORBIFLY Décembre 2007 - Disclaimer

ORBIFLY MET'MAP TEAM :

Programmation & Développement : Alexandra Zaïnal
Sur une idée originale de : Baudouin d'Aumeries
Assistance à la programmation : Marc-Olivier Méhu
Soutien technique & logistique : Manuel Goepfert

Contact : metmap@orbifly.com




SOURCES & CREDITS :

   NOAA       Earth
Advisory